sensor_id;sensor_type;location;lat;lon;timestamp;P1;durP1;ratioP1;P2;durP2;ratioP2
17727;SDS011;8984;49.268;12.302;2022-09-13T00:02:11;6.40;;;3.70;;
17727;SDS011;8984;49.268;12.302;2022-09-13T00:04:39;6.43;;;4.03;;
17727;SDS011;8984;49.268;12.302;2022-09-13T00:07:06;10.00;;;4.83;;
17727;SDS011;8984;49.268;12.302;2022-09-13T00:09:33;6.73;;;4.33;;
17727;SDS011;8984;49.268;12.302;2022-09-13T00:12:02;7.53;;;4.40;;
17727;SDS011;8984;49.268;12.302;2022-09-13T00:14:29;8.20;;;3.67;;
17727;SDS011;8984;49.268;12.302;2022-09-13T00:16:57;6.67;;;4.07;;
17727;SDS011;8984;49.268;12.302;2022-09-13T00:19:25;4.40;;;3.87;;
17727;SDS011;8984;49.268;12.302;2022-09-13T00:21:53;7.50;;;4.10;;
17727;SDS011;8984;49.268;12.302;2022-09-13T00:24:20;4.03;;;3.63;;
17727;SDS011;8984;49.268;12.302;2022-09-13T00:26:47;4.63;;;3.67;;
17727;SDS011;8984;49.268;12.302;2022-09-13T00:29:14;8.07;;;4.07;;
17727;SDS011;8984;49.268;12.302;2022-09-13T00:31:41;6.20;;;4.03;;
17727;SDS011;8984;49.268;12.302;2022-09-13T00:34:07;6.10;;;4.23;;
17727;SDS011;8984;49.268;12.302;2022-09-13T00:36:34;4.93;;;4.13;;
17727;SDS011;8984;49.268;12.302;2022-09-13T00:39:02;7.50;;;4.73;;
17727;SDS011;8984;49.268;12.302;2022-09-13T00:41:29;6.67;;;4.03;;
17727;SDS011;8984;49.268;12.302;2022-09-13T00:43:56;4.90;;;4.40;;
17727;SDS011;8984;49.268;12.302;2022-09-13T00:46:26;6.20;;;4.43;;
17727;SDS011;8984;49.268;12.302;2022-09-13T00:48:59;6.13;;;3.87;;
17727;SDS011;8984;49.268;12.302;2022-09-13T00:51:32;6.23;;;3.93;;
17727;SDS011;8984;49.268;12.302;2022-09-13T00:53:59;5.47;;;3.87;;
17727;SDS011;8984;49.268;12.302;2022-09-13T00:56:31;6.17;;;3.93;;
17727;SDS011;8984;49.268;12.302;2022-09-13T00:59:05;6.90;;;3.97;;
17727;SDS011;8984;49.268;12.302;2022-09-13T01:01:36;4.57;;;3.70;;
17727;SDS011;8984;49.268;12.302;2022-09-13T01:04:07;4.33;;;3.33;;
17727;SDS011;8984;49.268;12.302;2022-09-13T01:06:34;6.47;;;4.10;;
17727;SDS011;8984;49.268;12.302;2022-09-13T01:09:04;7.83;;;3.90;;
17727;SDS011;8984;49.268;12.302;2022-09-13T01:11:34;4.73;;;3.80;;
17727;SDS011;8984;49.268;12.302;2022-09-13T01:14:08;5.20;;;3.80;;
17727;SDS011;8984;49.268;12.302;2022-09-13T01:16:35;8.57;;;4.63;;
17727;SDS011;8984;49.268;12.302;2022-09-13T01:19:02;5.07;;;3.97;;
17727;SDS011;8984;49.268;12.302;2022-09-13T01:27:40;4.90;;;4.23;;
17727;SDS011;8984;49.268;12.302;2022-09-13T01:30:40;5.73;;;4.33;;
17727;SDS011;8984;49.268;12.302;2022-09-13T01:36:21;4.30;;;3.90;;
17727;SDS011;8984;49.268;12.302;2022-09-13T01:39:00;5.67;;;4.33;;
17727;SDS011;8984;49.268;12.302;2022-09-13T01:41:33;7.47;;;4.00;;
17727;SDS011;8984;49.268;12.302;2022-09-13T01:44:21;5.63;;;4.23;;
17727;SDS011;8984;49.268;12.302;2022-09-13T01:47:01;7.13;;;4.33;;
17727;SDS011;8984;49.268;12.302;2022-09-13T01:49:33;5.80;;;3.97;;
17727;SDS011;8984;49.268;12.302;2022-09-13T01:52:11;5.27;;;4.07;;
17727;SDS011;8984;49.268;12.302;2022-09-13T01:54:47;4.90;;;3.90;;
17727;SDS011;8984;49.268;12.302;2022-09-13T01:57:22;4.80;;;4.33;;
17727;SDS011;8984;49.268;12.302;2022-09-13T01:59:58;13.57;;;4.70;;
17727;SDS011;8984;49.268;12.302;2022-09-13T02:02:31;8.27;;;4.60;;
17727;SDS011;8984;49.268;12.302;2022-09-13T02:05:04;6.57;;;4.03;;
17727;SDS011;8984;49.268;12.302;2022-09-13T02:07:35;9.43;;;4.20;;
17727;SDS011;8984;49.268;12.302;2022-09-13T02:10:07;8.47;;;4.07;;
17727;SDS011;8984;49.268;12.302;2022-09-13T02:12:38;8.07;;;5.20;;
17727;SDS011;8984;49.268;12.302;2022-09-13T02:15:09;5.97;;;4.93;;
17727;SDS011;8984;49.268;12.302;2022-09-13T02:17:42;7.23;;;3.80;;
17727;SDS011;8984;49.268;12.302;2022-09-13T02:20:14;7.60;;;4.47;;
17727;SDS011;8984;49.268;12.302;2022-09-13T02:22:47;10.30;;;4.03;;
17727;SDS011;8984;49.268;12.302;2022-09-13T02:25:19;6.53;;;4.10;;
17727;SDS011;8984;49.268;12.302;2022-09-13T02:27:50;5.73;;;4.00;;
17727;SDS011;8984;49.268;12.302;2022-09-13T02:30:23;5.40;;;4.57;;
17727;SDS011;8984;49.268;12.302;2022-09-13T02:32:53;8.23;;;4.23;;
17727;SDS011;8984;49.268;12.302;2022-09-13T02:35:23;5.10;;;4.60;;
17727;SDS011;8984;49.268;12.302;2022-09-13T02:37:56;7.57;;;4.30;;
17727;SDS011;8984;49.268;12.302;2022-09-13T02:40:27;4.43;;;4.03;;
17727;SDS011;8984;49.268;12.302;2022-09-13T02:43:00;6.47;;;4.40;;
17727;SDS011;8984;49.268;12.302;2022-09-13T02:45:35;4.63;;;4.23;;
17727;SDS011;8984;49.268;12.302;2022-09-13T02:48:09;5.17;;;4.33;;
17727;SDS011;8984;49.268;12.302;2022-09-13T02:50:44;6.80;;;4.40;;
17727;SDS011;8984;49.268;12.302;2022-09-13T02:53:19;6.87;;;4.03;;
17727;SDS011;8984;49.268;12.302;2022-09-13T02:55:54;6.10;;;3.97;;
17727;SDS011;8984;49.268;12.302;2022-09-13T02:58:30;5.33;;;4.00;;
17727;SDS011;8984;49.268;12.302;2022-09-13T03:01:03;4.47;;;3.80;;
17727;SDS011;8984;49.268;12.302;2022-09-13T03:03:31;9.50;;;4.20;;
17727;SDS011;8984;49.268;12.302;2022-09-13T03:05:58;4.57;;;3.93;;
17727;SDS011;8984;49.268;12.302;2022-09-13T03:08:25;11.77;;;4.23;;
17727;SDS011;8984;49.268;12.302;2022-09-13T03:10:55;7.37;;;4.30;;
17727;SDS011;8984;49.268;12.302;2022-09-13T03:13:37;6.00;;;4.30;;
17727;SDS011;8984;49.268;12.302;2022-09-13T03:16:17;6.47;;;4.30;;
17727;SDS011;8984;49.268;12.302;2022-09-13T03:19:00;5.27;;;3.93;;
17727;SDS011;8984;49.268;12.302;2022-09-13T03:21:42;37.23;;;24.47;;
17727;SDS011;8984;49.268;12.302;2022-09-13T03:24:25;6.00;;;4.60;;
17727;SDS011;8984;49.268;12.302;2022-09-13T03:27:03;4.63;;;4.13;;
17727;SDS011;8984;49.268;12.302;2022-09-13T03:29:39;8.07;;;4.13;;
17727;SDS011;8984;49.268;12.302;2022-09-13T03:32:17;7.87;;;4.13;;
17727;SDS011;8984;49.268;12.302;2022-09-13T03:34:54;8.73;;;4.10;;
17727;SDS011;8984;49.268;12.302;2022-09-13T03:37:29;7.20;;;4.27;;
17727;SDS011;8984;49.268;12.302;2022-09-13T03:40:01;5.37;;;4.23;;
17727;SDS011;8984;49.268;12.302;2022-09-13T03:42:34;6.20;;;3.97;;
17727;SDS011;8984;49.268;12.302;2022-09-13T03:45:08;9.10;;;5.17;;
17727;SDS011;8984;49.268;12.302;2022-09-13T03:47:36;8.00;;;4.80;;
17727;SDS011;8984;49.268;12.302;2022-09-13T03:50:09;6.47;;;4.60;;
17727;SDS011;8984;49.268;12.302;2022-09-13T03:52:40;10.70;;;4.80;;
17727;SDS011;8984;49.268;12.302;2022-09-13T03:55:08;4.77;;;3.83;;
17727;SDS011;8984;49.268;12.302;2022-09-13T03:57:35;5.53;;;4.70;;
17727;SDS011;8984;49.268;12.302;2022-09-13T04:00:11;6.13;;;4.70;;
17727;SDS011;8984;49.268;12.302;2022-09-13T04:02:39;7.77;;;4.00;;
17727;SDS011;8984;49.268;12.302;2022-09-13T04:05:06;18.37;;;3.97;;
17727;SDS011;8984;49.268;12.302;2022-09-13T04:07:34;77.23;;;5.40;;
17727;SDS011;8984;49.268;12.302;2022-09-13T04:10:01;49.97;;;5.10;;
17727;SDS011;8984;49.268;12.302;2022-09-13T04:12:28;52.53;;;4.87;;
17727;SDS011;8984;49.268;12.302;2022-09-13T04:14:55;13.93;;;3.93;;
17727;SDS011;8984;49.268;12.302;2022-09-13T04:17:24;8.73;;;3.40;;
17727;SDS011;8984;49.268;12.302;2022-09-13T04:19:53;7.33;;;3.80;;
17727;SDS011;8984;49.268;12.302;2022-09-13T04:22:19;8.20;;;4.30;;
17727;SDS011;8984;49.268;12.302;2022-09-13T04:24:47;11.73;;;3.80;;
17727;SDS011;8984;49.268;12.302;2022-09-13T04:27:16;9.03;;;4.17;;
17727;SDS011;8984;49.268;12.302;2022-09-13T04:29:43;9.63;;;4.20;;
17727;SDS011;8984;49.268;12.302;2022-09-13T04:32:10;11.97;;;3.73;;
17727;SDS011;8984;49.268;12.302;2022-09-13T04:34:37;4.50;;;4.10;;
17727;SDS011;8984;49.268;12.302;2022-09-13T04:37:04;20.73;;;4.80;;
17727;SDS011;8984;49.268;12.302;2022-09-13T04:39:31;20.37;;;4.60;;
17727;SDS011;8984;49.268;12.302;2022-09-13T04:41:59;6.90;;;3.63;;
17727;SDS011;8984;49.268;12.302;2022-09-13T04:44:26;9.67;;;3.83;;
17727;SDS011;8984;49.268;12.302;2022-09-13T04:46:53;7.67;;;3.60;;
17727;SDS011;8984;49.268;12.302;2022-09-13T04:49:20;7.43;;;4.30;;
17727;SDS011;8984;49.268;12.302;2022-09-13T04:51:47;9.53;;;3.50;;
17727;SDS011;8984;49.268;12.302;2022-09-13T04:54:15;13.70;;;4.03;;
17727;SDS011;8984;49.268;12.302;2022-09-13T04:56:42;16.37;;;4.00;;
17727;SDS011;8984;49.268;12.302;2022-09-13T04:59:10;15.27;;;4.27;;
17727;SDS011;8984;49.268;12.302;2022-09-13T05:01:38;21.37;;;4.10;;
17727;SDS011;8984;49.268;12.302;2022-09-13T05:04:05;19.37;;;4.70;;
17727;SDS011;8984;49.268;12.302;2022-09-13T05:06:34;30.33;;;4.80;;
17727;SDS011;8984;49.268;12.302;2022-09-13T05:09:01;25.47;;;4.27;;
17727;SDS011;8984;49.268;12.302;2022-09-13T05:11:28;31.93;;;4.23;;
17727;SDS011;8984;49.268;12.302;2022-09-13T05:13:56;24.10;;;4.43;;
17727;SDS011;8984;49.268;12.302;2022-09-13T05:16:25;14.07;;;3.83;;
17727;SDS011;8984;49.268;12.302;2022-09-13T05:18:54;13.50;;;3.70;;
17727;SDS011;8984;49.268;12.302;2022-09-13T05:21:21;8.93;;;3.43;;
17727;SDS011;8984;49.268;12.302;2022-09-13T05:23:48;13.63;;;3.80;;
17727;SDS011;8984;49.268;12.302;2022-09-13T05:26:16;47.50;;;4.13;;
17727;SDS011;8984;49.268;12.302;2022-09-13T05:28:43;15.23;;;3.50;;
17727;SDS011;8984;49.268;12.302;2022-09-13T05:31:12;41.03;;;3.83;;
17727;SDS011;8984;49.268;12.302;2022-09-13T05:33:42;59.47;;;4.47;;
17727;SDS011;8984;49.268;12.302;2022-09-13T05:36:10;38.57;;;3.87;;
17727;SDS011;8984;49.268;12.302;2022-09-13T05:38:37;49.40;;;4.13;;
17727;SDS011;8984;49.268;12.302;2022-09-13T05:41:04;23.97;;;3.70;;
17727;SDS011;8984;49.268;12.302;2022-09-13T05:43:32;12.27;;;4.13;;
17727;SDS011;8984;49.268;12.302;2022-09-13T05:46:00;6.30;;;3.63;;
17727;SDS011;8984;49.268;12.302;2022-09-13T05:48:28;11.53;;;4.83;;
17727;SDS011;8984;49.268;12.302;2022-09-13T05:50:56;8.33;;;3.93;;
17727;SDS011;8984;49.268;12.302;2022-09-13T05:53:30;16.90;;;5.10;;
17727;SDS011;8984;49.268;12.302;2022-09-13T05:55:56;7.17;;;5.33;;
17727;SDS011;8984;49.268;12.302;2022-09-13T05:58:23;16.20;;;4.50;;
17727;SDS011;8984;49.268;12.302;2022-09-13T06:00:53;10.00;;;4.53;;
17727;SDS011;8984;49.268;12.302;2022-09-13T06:03:21;12.57;;;4.97;;
17727;SDS011;8984;49.268;12.302;2022-09-13T06:05:49;14.70;;;5.17;;
17727;SDS011;8984;49.268;12.302;2022-09-13T06:08:20;8.60;;;5.20;;
17727;SDS011;8984;49.268;12.302;2022-09-13T06:10:52;9.70;;;5.60;;
17727;SDS011;8984;49.268;12.302;2022-09-13T06:13:19;6.57;;;5.10;;
17727;SDS011;8984;49.268;12.302;2022-09-13T06:15:46;4.80;;;3.60;;
17727;SDS011;8984;49.268;12.302;2022-09-13T06:18:13;4.90;;;4.40;;
17727;SDS011;8984;49.268;12.302;2022-09-13T06:20:40;4.00;;;3.60;;
17727;SDS011;8984;49.268;12.302;2022-09-13T06:23:07;5.87;;;4.60;;
17727;SDS011;8984;49.268;12.302;2022-09-13T06:25:35;6.17;;;4.20;;
17727;SDS011;8984;49.268;12.302;2022-09-13T06:28:03;4.97;;;4.57;;
17727;SDS011;8984;49.268;12.302;2022-09-13T06:30:30;4.70;;;4.00;;
17727;SDS011;8984;49.268;12.302;2022-09-13T06:32:58;8.37;;;5.23;;
17727;SDS011;8984;49.268;12.302;2022-09-13T06:35:25;5.70;;;4.17;;
17727;SDS011;8984;49.268;12.302;2022-09-13T06:37:53;5.93;;;4.23;;
17727;SDS011;8984;49.268;12.302;2022-09-13T06:40:21;7.23;;;4.00;;
17727;SDS011;8984;49.268;12.302;2022-09-13T06:42:50;5.17;;;4.57;;
17727;SDS011;8984;49.268;12.302;2022-09-13T06:45:16;7.10;;;4.70;;
17727;SDS011;8984;49.268;12.302;2022-09-13T06:47:43;6.83;;;6.13;;
17727;SDS011;8984;49.268;12.302;2022-09-13T06:50:10;5.93;;;4.10;;
17727;SDS011;8984;49.268;12.302;2022-09-13T06:52:37;6.10;;;4.07;;
17727;SDS011;8984;49.268;12.302;2022-09-13T06:55:04;13.83;;;8.30;;
17727;SDS011;8984;49.268;12.302;2022-09-13T06:57:31;5.03;;;4.53;;
17727;SDS011;8984;49.268;12.302;2022-09-13T07:00:00;5.43;;;4.10;;
17727;SDS011;8984;49.268;12.302;2022-09-13T07:02:27;4.90;;;4.50;;
17727;SDS011;8984;49.268;12.302;2022-09-13T07:04:53;4.73;;;4.23;;
17727;SDS011;8984;49.268;12.302;2022-09-13T07:07:20;5.57;;;4.23;;
17727;SDS011;8984;49.268;12.302;2022-09-13T07:09:47;4.77;;;4.37;;
17727;SDS011;8984;49.268;12.302;2022-09-13T07:12:14;6.00;;;4.73;;
17727;SDS011;8984;49.268;12.302;2022-09-13T07:14:40;5.77;;;4.40;;
17727;SDS011;8984;49.268;12.302;2022-09-13T07:17:08;5.40;;;4.90;;
17727;SDS011;8984;49.268;12.302;2022-09-13T07:19:35;7.30;;;4.03;;
17727;SDS011;8984;49.268;12.302;2022-09-13T07:22:02;5.50;;;4.77;;
17727;SDS011;8984;49.268;12.302;2022-09-13T07:24:29;6.70;;;4.83;;
17727;SDS011;8984;49.268;12.302;2022-09-13T07:26:56;6.17;;;5.13;;
17727;SDS011;8984;49.268;12.302;2022-09-13T07:29:23;5.57;;;4.90;;
17727;SDS011;8984;49.268;12.302;2022-09-13T07:31:50;4.80;;;4.40;;
17727;SDS011;8984;49.268;12.302;2022-09-13T07:34:20;5.53;;;5.00;;
17727;SDS011;8984;49.268;12.302;2022-09-13T07:36:48;4.57;;;4.17;;
17727;SDS011;8984;49.268;12.302;2022-09-13T07:39:16;24.13;;;5.87;;
17727;SDS011;8984;49.268;12.302;2022-09-13T07:41:43;8.17;;;5.37;;
17727;SDS011;8984;49.268;12.302;2022-09-13T07:44:12;8.43;;;4.00;;
17727;SDS011;8984;49.268;12.302;2022-09-13T07:46:39;7.13;;;4.10;;
17727;SDS011;8984;49.268;12.302;2022-09-13T07:49:07;5.33;;;4.83;;
17727;SDS011;8984;49.268;12.302;2022-09-13T07:51:36;4.73;;;4.27;;
17727;SDS011;8984;49.268;12.302;2022-09-13T07:54:06;6.90;;;4.80;;
17727;SDS011;8984;49.268;12.302;2022-09-13T07:56:35;6.47;;;4.60;;
17727;SDS011;8984;49.268;12.302;2022-09-13T07:59:04;4.43;;;4.03;;
17727;SDS011;8984;49.268;12.302;2022-09-13T08:01:33;6.50;;;4.40;;
17727;SDS011;8984;49.268;12.302;2022-09-13T08:04:02;6.83;;;4.30;;
17727;SDS011;8984;49.268;12.302;2022-09-13T08:06:31;7.77;;;4.70;;
17727;SDS011;8984;49.268;12.302;2022-09-13T08:09:00;5.10;;;4.60;;
17727;SDS011;8984;49.268;12.302;2022-09-13T08:11:28;5.03;;;4.00;;
17727;SDS011;8984;49.268;12.302;2022-09-13T08:13:56;5.40;;;4.47;;
17727;SDS011;8984;49.268;12.302;2022-09-13T08:16:24;7.83;;;4.50;;
17727;SDS011;8984;49.268;12.302;2022-09-13T08:18:52;7.80;;;4.03;;
17727;SDS011;8984;49.268;12.302;2022-09-13T08:21:20;5.73;;;4.43;;
17727;SDS011;8984;49.268;12.302;2022-09-13T08:23:48;8.90;;;4.63;;
17727;SDS011;8984;49.268;12.302;2022-09-13T08:26:16;6.20;;;4.13;;
17727;SDS011;8984;49.268;12.302;2022-09-13T08:28:43;6.07;;;5.18;;
17727;SDS011;8984;49.268;12.302;2022-09-13T08:31:11;4.72;;;4.22;;
17727;SDS011;8984;49.268;12.302;2022-09-13T08:33:41;5.85;;;4.95;;
17727;SDS011;8984;49.268;12.302;2022-09-13T08:36:09;6.38;;;5.78;;
17727;SDS011;8984;49.268;12.302;2022-09-13T08:38:35;6.53;;;5.82;;
17727;SDS011;8984;49.268;12.302;2022-09-13T08:41:03;5.68;;;5.03;;
17727;SDS011;8984;49.268;12.302;2022-09-13T08:43:50;5.32;;;4.38;;
17727;SDS011;8984;49.268;12.302;2022-09-13T08:46:25;4.57;;;4.18;;
17727;SDS011;8984;49.268;12.302;2022-09-13T08:48:55;5.65;;;5.03;;
17727;SDS011;8984;49.268;12.302;2022-09-13T08:51:27;7.38;;;4.60;;
17727;SDS011;8984;49.268;12.302;2022-09-13T08:53:58;5.30;;;4.65;;
17727;SDS011;8984;49.268;12.302;2022-09-13T08:56:28;7.88;;;5.25;;
17727;SDS011;8984;49.268;12.302;2022-09-13T09:01:56;5.70;;;5.15;;
17727;SDS011;8984;49.268;12.302;2022-09-13T09:04:35;7.32;;;4.70;;
17727;SDS011;8984;49.268;12.302;2022-09-13T09:07:08;10.18;;;7.10;;
17727;SDS011;8984;49.268;12.302;2022-09-13T09:09:39;6.10;;;5.50;;
17727;SDS011;8984;49.268;12.302;2022-09-13T09:12:13;6.07;;;4.80;;
17727;SDS011;8984;49.268;12.302;2022-09-13T09:14:47;8.93;;;5.10;;
17727;SDS011;8984;49.268;12.302;2022-09-13T09:17:24;6.32;;;4.75;;
17727;SDS011;8984;49.268;12.302;2022-09-13T09:19:57;5.68;;;3.97;;
17727;SDS011;8984;49.268;12.302;2022-09-13T09:22:31;7.22;;;4.82;;
17727;SDS011;8984;49.268;12.302;2022-09-13T09:25:00;4.22;;;3.60;;
17727;SDS011;8984;49.268;12.302;2022-09-13T09:27:29;5.28;;;3.75;;
17727;SDS011;8984;49.268;12.302;2022-09-13T09:29:58;4.72;;;3.13;;
17727;SDS011;8984;49.268;12.302;2022-09-13T09:32:31;4.40;;;3.83;;
17727;SDS011;8984;49.268;12.302;2022-09-13T09:35:14;6.70;;;3.55;;
17727;SDS011;8984;49.268;12.302;2022-09-13T09:37:49;3.72;;;3.28;;
17727;SDS011;8984;49.268;12.302;2022-09-13T09:40:30;5.38;;;3.33;;
17727;SDS011;8984;49.268;12.302;2022-09-13T09:42:58;5.25;;;3.38;;
17727;SDS011;8984;49.268;12.302;2022-09-13T09:45:28;4.07;;;3.33;;
17727;SDS011;8984;49.268;12.302;2022-09-13T09:47:58;4.80;;;3.20;;
17727;SDS011;8984;49.268;12.302;2022-09-13T09:50:31;4.55;;;3.40;;
17727;SDS011;8984;49.268;12.302;2022-09-13T09:53:03;7.00;;;3.00;;
17727;SDS011;8984;49.268;12.302;2022-09-13T09:55:39;3.92;;;3.20;;
17727;SDS011;8984;49.268;12.302;2022-09-13T09:58:11;3.95;;;3.10;;
17727;SDS011;8984;49.268;12.302;2022-09-13T10:00:50;3.90;;;2.95;;
17727;SDS011;8984;49.268;12.302;2022-09-13T10:03:20;6.13;;;3.20;;
17727;SDS011;8984;49.268;12.302;2022-09-13T10:06:02;5.35;;;3.10;;
17727;SDS011;8984;49.268;12.302;2022-09-13T10:08:32;7.70;;;3.20;;
17727;SDS011;8984;49.268;12.302;2022-09-13T10:11:01;4.05;;;3.20;;
17727;SDS011;8984;49.268;12.302;2022-09-13T10:13:29;4.25;;;3.00;;
17727;SDS011;8984;49.268;12.302;2022-09-13T10:15:58;5.63;;;2.95;;
17727;SDS011;8984;49.268;12.302;2022-09-13T10:18:27;5.28;;;3.30;;
17727;SDS011;8984;49.268;12.302;2022-09-13T10:20:59;5.63;;;2.70;;
17727;SDS011;8984;49.268;12.302;2022-09-13T10:23:28;4.40;;;3.17;;
17727;SDS011;8984;49.268;12.302;2022-09-13T10:26:08;7.30;;;3.85;;
17727;SDS011;8984;49.268;12.302;2022-09-13T10:28:40;5.07;;;3.40;;
17727;SDS011;8984;49.268;12.302;2022-09-13T10:31:19;6.28;;;2.90;;
17727;SDS011;8984;49.268;12.302;2022-09-13T10:33:55;6.63;;;2.67;;
17727;SDS011;8984;49.268;12.302;2022-09-13T10:36:27;4.60;;;3.13;;
17727;SDS011;8984;49.268;12.302;2022-09-13T10:38:56;3.35;;;2.80;;
17727;SDS011;8984;49.268;12.302;2022-09-13T10:41:27;5.35;;;1.95;;
17727;SDS011;8984;49.268;12.302;2022-09-13T10:43:57;4.18;;;2.20;;
17727;SDS011;8984;49.268;12.302;2022-09-13T10:46:29;4.65;;;2.40;;
17727;SDS011;8984;49.268;12.302;2022-09-13T10:49:01;6.05;;;2.70;;
17727;SDS011;8984;49.268;12.302;2022-09-13T10:51:30;5.13;;;2.13;;
17727;SDS011;8984;49.268;12.302;2022-09-13T10:54:08;6.60;;;4.20;;
17727;SDS011;8984;49.268;12.302;2022-09-13T10:56:42;7.38;;;4.32;;
17727;SDS011;8984;49.268;12.302;2022-09-13T10:59:13;7.90;;;5.93;;
17727;SDS011;8984;49.268;12.302;2022-09-13T11:01:44;5.25;;;3.95;;
17727;SDS011;8984;49.268;12.302;2022-09-13T11:10:07;3.78;;;3.00;;
17727;SDS011;8984;49.268;12.302;2022-09-13T11:12:42;6.65;;;4.32;;
17727;SDS011;8984;49.268;12.302;2022-09-13T11:15:19;5.13;;;3.50;;
17727;SDS011;8984;49.268;12.302;2022-09-13T11:18:03;3.72;;;3.28;;
17727;SDS011;8984;49.268;12.302;2022-09-13T11:20:44;5.50;;;3.88;;
17727;SDS011;8984;49.268;12.302;2022-09-13T11:23:24;3.70;;;3.20;;
17727;SDS011;8984;49.268;12.302;2022-09-13T11:26:24;6.90;;;2.88;;
17727;SDS011;8984;49.268;12.302;2022-09-13T11:29:01;5.85;;;2.67;;
17727;SDS011;8984;49.268;12.302;2022-09-13T11:31:37;7.43;;;3.40;;
17727;SDS011;8984;49.268;12.302;2022-09-13T11:34:13;5.50;;;2.60;;
17727;SDS011;8984;49.268;12.302;2022-09-13T11:36:59;7.50;;;3.45;;
17727;SDS011;8984;49.268;12.302;2022-09-13T11:39:45;4.43;;;2.75;;
17727;SDS011;8984;49.268;12.302;2022-09-13T11:42:21;5.35;;;3.35;;
17727;SDS011;8984;49.268;12.302;2022-09-13T11:47:47;6.25;;;3.60;;
17727;SDS011;8984;49.268;12.302;2022-09-13T11:50:37;3.85;;;2.55;;
17727;SDS011;8984;49.268;12.302;2022-09-13T11:53:22;5.88;;;3.25;;
17727;SDS011;8984;49.268;12.302;2022-09-13T11:56:22;3.83;;;3.42;;
17727;SDS011;8984;49.268;12.302;2022-09-13T11:58:57;4.15;;;3.00;;
17727;SDS011;8984;49.268;12.302;2022-09-13T12:01:35;6.25;;;3.17;;
17727;SDS011;8984;49.268;12.302;2022-09-13T12:04:04;7.43;;;2.85;;
17727;SDS011;8984;49.268;12.302;2022-09-13T12:06:40;4.18;;;2.90;;
17727;SDS011;8984;49.268;12.302;2022-09-13T12:09:11;6.30;;;3.40;;
17727;SDS011;8984;49.268;12.302;2022-09-13T12:11:42;3.55;;;2.92;;
17727;SDS011;8984;49.268;12.302;2022-09-13T12:14:14;3.50;;;3.20;;
17727;SDS011;8984;49.268;12.302;2022-09-13T12:16:44;5.43;;;3.00;;
17727;SDS011;8984;49.268;12.302;2022-09-13T12:19:15;6.18;;;3.53;;
17727;SDS011;8984;49.268;12.302;2022-09-13T12:21:48;10.40;;;3.65;;
17727;SDS011;8984;49.268;12.302;2022-09-13T12:24:18;5.13;;;3.13;;
17727;SDS011;8984;49.268;12.302;2022-09-13T12:26:53;3.58;;;3.20;;
17727;SDS011;8984;49.268;12.302;2022-09-13T12:29:26;3.90;;;3.20;;
17727;SDS011;8984;49.268;12.302;2022-09-13T12:31:58;4.28;;;3.17;;
17727;SDS011;8984;49.268;12.302;2022-09-13T12:34:29;4.03;;;3.10;;
17727;SDS011;8984;49.268;12.302;2022-09-13T12:37:08;3.80;;;2.90;;
17727;SDS011;8984;49.268;12.302;2022-09-13T12:39:44;3.90;;;3.15;;
17727;SDS011;8984;49.268;12.302;2022-09-13T12:42:50;3.55;;;3.20;;
17727;SDS011;8984;49.268;12.302;2022-09-13T12:45:48;5.22;;;3.10;;
17727;SDS011;8984;49.268;12.302;2022-09-13T12:48:40;3.47;;;3.05;;
17727;SDS011;8984;49.268;12.302;2022-09-13T12:51:30;4.68;;;3.47;;
17727;SDS011;8984;49.268;12.302;2022-09-13T12:54:29;3.17;;;2.75;;
17727;SDS011;8984;49.268;12.302;2022-09-13T12:57:14;3.67;;;2.85;;
17727;SDS011;8984;49.268;12.302;2022-09-13T12:59:56;3.42;;;3.13;;
17727;SDS011;8984;49.268;12.302;2022-09-13T13:02:36;4.10;;;2.85;;
17727;SDS011;8984;49.268;12.302;2022-09-13T13:05:05;4.97;;;3.42;;
17727;SDS011;8984;49.268;12.302;2022-09-13T13:07:48;4.15;;;3.15;;
17727;SDS011;8984;49.268;12.302;2022-09-13T13:10:25;6.90;;;3.42;;
17727;SDS011;8984;49.268;12.302;2022-09-13T13:12:55;6.72;;;2.88;;
17727;SDS011;8984;49.268;12.302;2022-09-13T13:15:54;4.68;;;3.17;;
17727;SDS011;8984;49.268;12.302;2022-09-13T13:18:27;4.60;;;3.00;;
17727;SDS011;8984;49.268;12.302;2022-09-13T13:21:03;3.28;;;2.90;;
17727;SDS011;8984;49.268;12.302;2022-09-13T13:23:45;4.78;;;2.90;;
17727;SDS011;8984;49.268;12.302;2022-09-13T13:26:36;4.13;;;3.13;;
17727;SDS011;8984;49.268;12.302;2022-09-13T13:29:11;3.35;;;2.85;;
17727;SDS011;8984;49.268;12.302;2022-09-13T13:31:41;3.75;;;2.90;;
17727;SDS011;8984;49.268;12.302;2022-09-13T13:37:02;3.53;;;2.92;;
17727;SDS011;8984;49.268;12.302;2022-09-13T13:39:31;5.80;;;2.83;;
17727;SDS011;8984;49.268;12.302;2022-09-13T13:42:09;3.92;;;3.10;;
17727;SDS011;8984;49.268;12.302;2022-09-13T13:50:34;5.07;;;3.72;;
17727;SDS011;8984;49.268;12.302;2022-09-13T13:53:33;3.72;;;3.20;;
17727;SDS011;8984;49.268;12.302;2022-09-13T13:56:14;3.35;;;3.00;;
17727;SDS011;8984;49.268;12.302;2022-09-13T13:58:47;3.67;;;3.38;;
17727;SDS011;8984;49.268;12.302;2022-09-13T14:01:19;4.05;;;3.38;;
17727;SDS011;8984;49.268;12.302;2022-09-13T14:03:50;28.63;;;8.93;;
17727;SDS011;8984;49.268;12.302;2022-09-13T14:06:30;26.10;;;8.25;;
17727;SDS011;8984;49.268;12.302;2022-09-13T14:09:04;34.15;;;12.30;;
17727;SDS011;8984;49.268;12.302;2022-09-13T14:11:45;10.55;;;5.15;;
17727;SDS011;8984;49.268;12.302;2022-09-13T14:14:27;10.55;;;5.28;;
17727;SDS011;8984;49.268;12.302;2022-09-13T14:17:12;7.00;;;4.00;;
17727;SDS011;8984;49.268;12.302;2022-09-13T14:19:57;3.92;;;3.13;;
17727;SDS011;8984;49.268;12.302;2022-09-13T14:22:28;4.88;;;3.17;;
17727;SDS011;8984;49.268;12.302;2022-09-13T14:24:55;9.75;;;5.00;;
17727;SDS011;8984;49.268;12.302;2022-09-13T14:27:24;4.75;;;4.20;;
17727;SDS011;8984;49.268;12.302;2022-09-13T14:29:54;8.23;;;6.07;;
17727;SDS011;8984;49.268;12.302;2022-09-13T14:32:24;6.22;;;5.45;;
17727;SDS011;8984;49.268;12.302;2022-09-13T14:34:54;7.38;;;5.07;;
17727;SDS011;8984;49.268;12.302;2022-09-13T14:37:24;7.50;;;5.13;;
17727;SDS011;8984;49.268;12.302;2022-09-13T14:39:55;9.48;;;6.78;;
17727;SDS011;8984;49.268;12.302;2022-09-13T14:42:24;8.63;;;5.60;;
17727;SDS011;8984;49.268;12.302;2022-09-13T14:44:51;7.03;;;5.10;;
17727;SDS011;8984;49.268;12.302;2022-09-13T14:47:21;7.88;;;4.57;;
17727;SDS011;8984;49.268;12.302;2022-09-13T14:49:56;7.03;;;4.45;;
17727;SDS011;8984;49.268;12.302;2022-09-13T14:52:28;4.30;;;3.30;;
17727;SDS011;8984;49.268;12.302;2022-09-13T14:54:59;12.23;;;4.20;;
17727;SDS011;8984;49.268;12.302;2022-09-13T14:57:30;6.88;;;4.10;;
17727;SDS011;8984;49.268;12.302;2022-09-13T15:00:03;5.20;;;3.58;;
17727;SDS011;8984;49.268;12.302;2022-09-13T15:02:35;4.82;;;3.40;;
17727;SDS011;8984;49.268;12.302;2022-09-13T15:05:05;7.95;;;4.13;;
17727;SDS011;8984;49.268;12.302;2022-09-13T15:07:34;6.63;;;3.90;;
17727;SDS011;8984;49.268;12.302;2022-09-13T15:10:07;5.78;;;3.90;;
17727;SDS011;8984;49.268;12.302;2022-09-13T15:12:48;6.90;;;3.95;;
17727;SDS011;8984;49.268;12.302;2022-09-13T15:15:24;3.53;;;3.17;;
17727;SDS011;8984;49.268;12.302;2022-09-13T15:17:57;5.53;;;3.78;;
17727;SDS011;8984;49.268;12.302;2022-09-13T15:20:26;4.72;;;3.42;;
17727;SDS011;8984;49.268;12.302;2022-09-13T15:22:55;5.15;;;4.13;;
17727;SDS011;8984;49.268;12.302;2022-09-13T15:25:23;5.53;;;3.85;;
17727;SDS011;8984;49.268;12.302;2022-09-13T15:27:51;4.72;;;4.10;;
17727;SDS011;8984;49.268;12.302;2022-09-13T15:30:20;3.65;;;3.33;;
17727;SDS011;8984;49.268;12.302;2022-09-13T15:33:02;4.55;;;4.07;;
17727;SDS011;8984;49.268;12.302;2022-09-13T15:35:33;4.50;;;3.80;;
17727;SDS011;8984;49.268;12.302;2022-09-13T15:38:13;6.90;;;4.00;;
17727;SDS011;8984;49.268;12.302;2022-09-13T15:40:43;7.40;;;3.67;;
17727;SDS011;8984;49.268;12.302;2022-09-13T15:43:11;4.75;;;3.88;;
17727;SDS011;8984;49.268;12.302;2022-09-13T15:45:39;5.70;;;3.45;;